sensor_id;sensor_type;location;lat;lon;timestamp;P1;durP1;ratioP1;P2;durP2;ratioP2
65998;SDS011;52766;56.008;37.440;2023-04-26T00:01:28;9.38;;;4.75;;
65998;SDS011;52766;56.008;37.440;2023-04-26T00:03:54;9.18;;;5.18;;
65998;SDS011;52766;56.008;37.440;2023-04-26T00:06:21;10.30;;;5.38;;
65998;SDS011;52766;56.008;37.440;2023-04-26T00:08:47;10.88;;;6.70;;
65998;SDS011;52766;56.008;37.440;2023-04-26T00:11:14;11.93;;;7.00;;
65998;SDS011;52766;56.008;37.440;2023-04-26T00:13:46;23.67;;;12.15;;
65998;SDS011;52766;56.008;37.440;2023-04-26T00:16:17;21.33;;;9.77;;
65998;SDS011;52766;56.008;37.440;2023-04-26T00:18:44;14.25;;;6.95;;
65998;SDS011;52766;56.008;37.440;2023-04-26T00:21:11;11.88;;;5.53;;
65998;SDS011;52766;56.008;37.440;2023-04-26T00:23:37;8.55;;;4.88;;
65998;SDS011;52766;56.008;37.440;2023-04-26T00:26:03;9.07;;;4.60;;
65998;SDS011;52766;56.008;37.440;2023-04-26T00:28:29;10.48;;;5.10;;
65998;SDS011;52766;56.008;37.440;2023-04-26T00:30:55;10.23;;;4.30;;
65998;SDS011;52766;56.008;37.440;2023-04-26T00:33:23;8.77;;;5.18;;
65998;SDS011;52766;56.008;37.440;2023-04-26T00:35:50;8.57;;;4.45;;
65998;SDS011;52766;56.008;37.440;2023-04-26T00:38:16;9.35;;;5.07;;
65998;SDS011;52766;56.008;37.440;2023-04-26T00:40:43;6.53;;;3.95;;
65998;SDS011;52766;56.008;37.440;2023-04-26T00:43:12;11.95;;;4.72;;
65998;SDS011;52766;56.008;37.440;2023-04-26T00:45:38;9.48;;;5.53;;
65998;SDS011;52766;56.008;37.440;2023-04-26T00:48:04;9.85;;;5.28;;
65998;SDS011;52766;56.008;37.440;2023-04-26T00:50:30;10.48;;;5.35;;
65998;SDS011;52766;56.008;37.440;2023-04-26T00:52:57;12.82;;;6.35;;
65998;SDS011;52766;56.008;37.440;2023-04-26T00:55:24;9.57;;;5.35;;
65998;SDS011;52766;56.008;37.440;2023-04-26T00:57:51;15.05;;;7.80;;
65998;SDS011;52766;56.008;37.440;2023-04-26T01:00:18;11.50;;;6.30;;
65998;SDS011;52766;56.008;37.440;2023-04-26T01:02:44;13.18;;;7.07;;
65998;SDS011;52766;56.008;37.440;2023-04-26T01:05:11;11.85;;;6.50;;
65998;SDS011;52766;56.008;37.440;2023-04-26T01:07:37;16.13;;;7.60;;
65998;SDS011;52766;56.008;37.440;2023-04-26T01:10:03;13.23;;;6.35;;
65998;SDS011;52766;56.008;37.440;2023-04-26T01:12:34;17.33;;;7.65;;
65998;SDS011;52766;56.008;37.440;2023-04-26T01:15:04;24.38;;;10.10;;
65998;SDS011;52766;56.008;37.440;2023-04-26T01:17:33;21.52;;;9.43;;
65998;SDS011;52766;56.008;37.440;2023-04-26T01:19:58;41.50;;;14.82;;
65998;SDS011;52766;56.008;37.440;2023-04-26T01:22:26;37.17;;;14.38;;
65998;SDS011;52766;56.008;37.440;2023-04-26T01:24:53;43.38;;;15.27;;
65998;SDS011;52766;56.008;37.440;2023-04-26T01:27:19;49.47;;;16.42;;
65998;SDS011;52766;56.008;37.440;2023-04-26T01:29:46;47.03;;;16.90;;
65998;SDS011;52766;56.008;37.440;2023-04-26T01:32:12;46.80;;;16.52;;
65998;SDS011;52766;56.008;37.440;2023-04-26T01:34:39;46.75;;;16.98;;
65998;SDS011;52766;56.008;37.440;2023-04-26T01:37:05;43.40;;;15.57;;
65998;SDS011;52766;56.008;37.440;2023-04-26T01:39:32;47.85;;;15.27;;
65998;SDS011;52766;56.008;37.440;2023-04-26T01:42:00;22.65;;;10.80;;
65998;SDS011;52766;56.008;37.440;2023-04-26T01:44:30;14.25;;;7.20;;
65998;SDS011;52766;56.008;37.440;2023-04-26T01:46:59;9.57;;;5.07;;
65998;SDS011;52766;56.008;37.440;2023-04-26T01:49:25;13.15;;;7.25;;
65998;SDS011;52766;56.008;37.440;2023-04-26T01:51:53;19.88;;;8.27;;
65998;SDS011;52766;56.008;37.440;2023-04-26T01:54:19;9.98;;;5.80;;
65998;SDS011;52766;56.008;37.440;2023-04-26T01:56:45;13.07;;;5.90;;
65998;SDS011;52766;56.008;37.440;2023-04-26T01:59:11;13.48;;;7.18;;
65998;SDS011;52766;56.008;37.440;2023-04-26T02:01:37;8.25;;;4.38;;
65998;SDS011;52766;56.008;37.440;2023-04-26T02:04:03;11.45;;;6.93;;
65998;SDS011;52766;56.008;37.440;2023-04-26T02:06:30;10.98;;;5.15;;
65998;SDS011;52766;56.008;37.440;2023-04-26T02:08:56;11.13;;;5.43;;
65998;SDS011;52766;56.008;37.440;2023-04-26T02:11:22;11.57;;;7.15;;
65998;SDS011;52766;56.008;37.440;2023-04-26T02:13:51;9.73;;;4.85;;
65998;SDS011;52766;56.008;37.440;2023-04-26T02:16:20;11.40;;;5.22;;
65998;SDS011;52766;56.008;37.440;2023-04-26T02:18:46;13.70;;;5.13;;
65998;SDS011;52766;56.008;37.440;2023-04-26T02:21:17;10.07;;;4.38;;
65998;SDS011;52766;56.008;37.440;2023-04-26T02:23:43;8.32;;;4.65;;
65998;SDS011;52766;56.008;37.440;2023-04-26T02:26:10;10.75;;;5.55;;
65998;SDS011;52766;56.008;37.440;2023-04-26T02:28:38;11.68;;;5.97;;
65998;SDS011;52766;56.008;37.440;2023-04-26T02:31:04;16.25;;;9.60;;
65998;SDS011;52766;56.008;37.440;2023-04-26T02:33:30;19.48;;;10.50;;
65998;SDS011;52766;56.008;37.440;2023-04-26T02:35:57;24.67;;;13.98;;
65998;SDS011;52766;56.008;37.440;2023-04-26T02:38:23;13.98;;;9.73;;
65998;SDS011;52766;56.008;37.440;2023-04-26T02:40:59;19.58;;;11.55;;
65998;SDS011;52766;56.008;37.440;2023-04-26T02:43:25;17.90;;;11.27;;
65998;SDS011;52766;56.008;37.440;2023-04-26T02:45:54;10.98;;;6.68;;
65998;SDS011;52766;56.008;37.440;2023-04-26T02:48:23;17.85;;;11.65;;
65998;SDS011;52766;56.008;37.440;2023-04-26T02:50:49;21.33;;;13.30;;
65998;SDS011;52766;56.008;37.440;2023-04-26T02:53:15;24.63;;;14.55;;
65998;SDS011;52766;56.008;37.440;2023-04-26T02:55:42;18.52;;;12.68;;
65998;SDS011;52766;56.008;37.440;2023-04-26T02:58:08;18.90;;;12.43;;
65998;SDS011;52766;56.008;37.440;2023-04-26T03:00:34;14.73;;;8.52;;
65998;SDS011;52766;56.008;37.440;2023-04-26T03:03:00;19.17;;;11.77;;
65998;SDS011;52766;56.008;37.440;2023-04-26T03:05:29;13.02;;;7.75;;
65998;SDS011;52766;56.008;37.440;2023-04-26T03:07:54;13.05;;;8.52;;
65998;SDS011;52766;56.008;37.440;2023-04-26T03:10:21;9.68;;;6.35;;
65998;SDS011;52766;56.008;37.440;2023-04-26T03:12:47;11.02;;;5.60;;
65998;SDS011;52766;56.008;37.440;2023-04-26T03:15:14;17.08;;;9.77;;
65998;SDS011;52766;56.008;37.440;2023-04-26T03:17:41;14.02;;;8.75;;
65998;SDS011;52766;56.008;37.440;2023-04-26T03:20:10;13.05;;;8.13;;
65998;SDS011;52766;56.008;37.440;2023-04-26T03:22:36;10.30;;;4.65;;
65998;SDS011;52766;56.008;37.440;2023-04-26T03:25:04;14.02;;;7.70;;
65998;SDS011;52766;56.008;37.440;2023-04-26T03:27:33;12.05;;;5.53;;
65998;SDS011;52766;56.008;37.440;2023-04-26T03:29:59;14.18;;;7.45;;
65998;SDS011;52766;56.008;37.440;2023-04-26T03:32:30;12.25;;;5.22;;
65998;SDS011;52766;56.008;37.440;2023-04-26T03:34:56;14.15;;;6.05;;
65998;SDS011;52766;56.008;37.440;2023-04-26T03:37:23;13.25;;;5.95;;
65998;SDS011;52766;56.008;37.440;2023-04-26T03:39:59;11.57;;;4.82;;
65998;SDS011;52766;56.008;37.440;2023-04-26T03:42:25;11.23;;;4.60;;
65998;SDS011;52766;56.008;37.440;2023-04-26T03:44:53;11.10;;;5.05;;
65998;SDS011;52766;56.008;37.440;2023-04-26T03:47:21;10.70;;;4.60;;
65998;SDS011;52766;56.008;37.440;2023-04-26T03:49:49;9.55;;;5.03;;
65998;SDS011;52766;56.008;37.440;2023-04-26T03:52:15;11.80;;;4.93;;
65998;SDS011;52766;56.008;37.440;2023-04-26T03:54:41;13.32;;;5.85;;
65998;SDS011;52766;56.008;37.440;2023-04-26T03:57:08;8.77;;;4.25;;
65998;SDS011;52766;56.008;37.440;2023-04-26T03:59:34;8.52;;;3.28;;
65998;SDS011;52766;56.008;37.440;2023-04-26T04:02:05;9.35;;;4.28;;
65998;SDS011;52766;56.008;37.440;2023-04-26T04:04:32;10.00;;;4.95;;
65998;SDS011;52766;56.008;37.440;2023-04-26T04:07:00;9.02;;;5.18;;
65998;SDS011;52766;56.008;37.440;2023-04-26T04:09:26;10.82;;;5.45;;
65998;SDS011;52766;56.008;37.440;2023-04-26T04:11:54;8.68;;;4.47;;
65998;SDS011;52766;56.008;37.440;2023-04-26T04:14:34;10.95;;;4.70;;
65998;SDS011;52766;56.008;37.440;2023-04-26T04:17:48;11.05;;;5.60;;
65998;SDS011;52766;56.008;37.440;2023-04-26T04:20:14;11.13;;;5.93;;
65998;SDS011;52766;56.008;37.440;2023-04-26T04:22:41;9.80;;;5.35;;
65998;SDS011;52766;56.008;37.440;2023-04-26T04:25:09;7.47;;;3.70;;
65998;SDS011;52766;56.008;37.440;2023-04-26T04:27:38;7.70;;;4.15;;
65998;SDS011;52766;56.008;37.440;2023-04-26T04:30:07;10.90;;;5.35;;
65998;SDS011;52766;56.008;37.440;2023-04-26T04:32:34;8.80;;;4.70;;
65998;SDS011;52766;56.008;37.440;2023-04-26T04:35:01;5.18;;;3.03;;
65998;SDS011;52766;56.008;37.440;2023-04-26T04:37:29;8.95;;;4.88;;
65998;SDS011;52766;56.008;37.440;2023-04-26T04:39:58;7.95;;;4.13;;
65998;SDS011;52766;56.008;37.440;2023-04-26T04:42:25;9.82;;;4.13;;
65998;SDS011;52766;56.008;37.440;2023-04-26T04:44:58;6.55;;;3.30;;
65998;SDS011;52766;56.008;37.440;2023-04-26T04:47:26;7.07;;;3.28;;
65998;SDS011;52766;56.008;37.440;2023-04-26T04:49:51;7.80;;;4.38;;
65998;SDS011;52766;56.008;37.440;2023-04-26T04:52:19;5.45;;;2.90;;
65998;SDS011;52766;56.008;37.440;2023-04-26T04:54:47;5.22;;;2.88;;
65998;SDS011;52766;56.008;37.440;2023-04-26T04:57:18;4.80;;;2.58;;
65998;SDS011;52766;56.008;37.440;2023-04-26T04:59:46;6.55;;;3.38;;
65998;SDS011;52766;56.008;37.440;2023-04-26T05:02:12;7.43;;;3.45;;
65998;SDS011;52766;56.008;37.440;2023-04-26T05:04:37;4.55;;;2.40;;
65998;SDS011;52766;56.008;37.440;2023-04-26T05:07:05;5.38;;;2.80;;
65998;SDS011;52766;56.008;37.440;2023-04-26T05:09:33;5.90;;;2.65;;
65998;SDS011;52766;56.008;37.440;2023-04-26T05:12:01;4.95;;;2.20;;
65998;SDS011;52766;56.008;37.440;2023-04-26T05:14:28;5.78;;;2.60;;
65998;SDS011;52766;56.008;37.440;2023-04-26T05:16:55;6.07;;;3.47;;
65998;SDS011;52766;56.008;37.440;2023-04-26T05:19:22;5.95;;;3.00;;
65998;SDS011;52766;56.008;37.440;2023-04-26T05:21:51;5.10;;;2.53;;
65998;SDS011;52766;56.008;37.440;2023-04-26T05:24:17;10.85;;;2.58;;
65998;SDS011;52766;56.008;37.440;2023-04-26T05:26:46;4.50;;;2.47;;
65998;SDS011;52766;56.008;37.440;2023-04-26T05:29:40;2.80;;;1.83;;
65998;SDS011;52766;56.008;37.440;2023-04-26T05:32:17;4.70;;;2.30;;
65998;SDS011;52766;56.008;37.440;2023-04-26T05:35:13;7.55;;;2.38;;
65998;SDS011;52766;56.008;37.440;2023-04-26T05:37:41;4.32;;;1.90;;
65998;SDS011;52766;56.008;37.440;2023-04-26T05:40:11;4.22;;;2.08;;
65998;SDS011;52766;56.008;37.440;2023-04-26T05:42:41;4.80;;;2.70;;
65998;SDS011;52766;56.008;37.440;2023-04-26T05:45:08;3.08;;;1.70;;
65998;SDS011;52766;56.008;37.440;2023-04-26T05:47:34;5.57;;;2.70;;
65998;SDS011;52766;56.008;37.440;2023-04-26T05:50:01;5.57;;;2.60;;
65998;SDS011;52766;56.008;37.440;2023-04-26T05:52:30;2.95;;;1.45;;
65998;SDS011;52766;56.008;37.440;2023-04-26T05:54:58;5.88;;;2.25;;
65998;SDS011;52766;56.008;37.440;2023-04-26T05:57:24;6.00;;;2.60;;
65998;SDS011;52766;56.008;37.440;2023-04-26T05:59:50;4.72;;;2.20;;
65998;SDS011;52766;56.008;37.440;2023-04-26T06:02:17;6.05;;;3.63;;
65998;SDS011;52766;56.008;37.440;2023-04-26T06:04:43;7.00;;;3.25;;
65998;SDS011;52766;56.008;37.440;2023-04-26T06:07:13;7.80;;;2.92;;
65998;SDS011;52766;56.008;37.440;2023-04-26T06:09:40;6.93;;;3.63;;
65998;SDS011;52766;56.008;37.440;2023-04-26T06:12:06;4.80;;;2.50;;
65998;SDS011;52766;56.008;37.440;2023-04-26T06:14:36;7.95;;;3.78;;
65998;SDS011;52766;56.008;37.440;2023-04-26T06:17:06;9.52;;;4.40;;
65998;SDS011;52766;56.008;37.440;2023-04-26T06:19:32;5.28;;;2.38;;
65998;SDS011;52766;56.008;37.440;2023-04-26T06:21:59;7.35;;;3.75;;
65998;SDS011;52766;56.008;37.440;2023-04-26T06:24:26;5.93;;;3.03;;
65998;SDS011;52766;56.008;37.440;2023-04-26T06:26:52;8.40;;;3.47;;
65998;SDS011;52766;56.008;37.440;2023-04-26T06:29:20;4.75;;;2.50;;
65998;SDS011;52766;56.008;37.440;2023-04-26T06:31:46;7.35;;;3.70;;
65998;SDS011;52766;56.008;37.440;2023-04-26T06:34:13;5.50;;;3.05;;
65998;SDS011;52766;56.008;37.440;2023-04-26T06:36:39;8.02;;;4.35;;
65998;SDS011;52766;56.008;37.440;2023-04-26T06:39:10;5.57;;;2.42;;
65998;SDS011;52766;56.008;37.440;2023-04-26T06:41:37;5.68;;;3.10;;
65998;SDS011;52766;56.008;37.440;2023-04-26T06:44:03;5.90;;;2.83;;
65998;SDS011;52766;56.008;37.440;2023-04-26T06:46:32;7.30;;;3.33;;
65998;SDS011;52766;56.008;37.440;2023-04-26T06:49:02;8.15;;;4.50;;
65998;SDS011;52766;56.008;37.440;2023-04-26T06:51:28;9.57;;;5.32;;
65998;SDS011;52766;56.008;37.440;2023-04-26T06:53:54;7.70;;;3.80;;
65998;SDS011;52766;56.008;37.440;2023-04-26T06:59:03;8.38;;;4.13;;
65998;SDS011;52766;56.008;37.440;2023-04-26T07:01:39;4.82;;;2.88;;
65998;SDS011;52766;56.008;37.440;2023-04-26T07:04:13;6.07;;;3.58;;
65998;SDS011;52766;56.008;37.440;2023-04-26T07:06:41;6.10;;;3.45;;
65998;SDS011;52766;56.008;37.440;2023-04-26T07:09:07;8.30;;;4.68;;
65998;SDS011;52766;56.008;37.440;2023-04-26T07:11:35;10.85;;;5.47;;
65998;SDS011;52766;56.008;37.440;2023-04-26T07:14:09;12.38;;;6.47;;
65998;SDS011;52766;56.008;37.440;2023-04-26T07:16:36;6.50;;;3.05;;
65998;SDS011;52766;56.008;37.440;2023-04-26T07:19:05;6.45;;;3.78;;
65998;SDS011;52766;56.008;37.440;2023-04-26T07:21:31;6.28;;;3.25;;
65998;SDS011;52766;56.008;37.440;2023-04-26T07:23:57;5.45;;;2.88;;
65998;SDS011;52766;56.008;37.440;2023-04-26T07:26:24;6.32;;;2.90;;
65998;SDS011;52766;56.008;37.440;2023-04-26T07:28:51;4.60;;;2.90;;
65998;SDS011;52766;56.008;37.440;2023-04-26T07:31:17;6.15;;;3.35;;
65998;SDS011;52766;56.008;37.440;2023-04-26T07:33:44;9.93;;;4.15;;
65998;SDS011;52766;56.008;37.440;2023-04-26T07:36:10;6.47;;;3.92;;
65998;SDS011;52766;56.008;37.440;2023-04-26T07:38:36;6.68;;;3.20;;
65998;SDS011;52766;56.008;37.440;2023-04-26T07:41:02;3.83;;;2.40;;
65998;SDS011;52766;56.008;37.440;2023-04-26T07:43:29;5.45;;;3.20;;
65998;SDS011;52766;56.008;37.440;2023-04-26T07:45:58;5.20;;;3.00;;
65998;SDS011;52766;56.008;37.440;2023-04-26T07:48:28;5.35;;;2.65;;
65998;SDS011;52766;56.008;37.440;2023-04-26T07:50:55;6.28;;;3.83;;
65998;SDS011;52766;56.008;37.440;2023-04-26T07:53:21;5.13;;;2.97;;
65998;SDS011;52766;56.008;37.440;2023-04-26T07:55:49;5.30;;;3.33;;
65998;SDS011;52766;56.008;37.440;2023-04-26T07:58:15;5.50;;;2.95;;
65998;SDS011;52766;56.008;37.440;2023-04-26T08:00:49;4.55;;;2.80;;
65998;SDS011;52766;56.008;37.440;2023-04-26T08:03:15;7.40;;;3.25;;
65998;SDS011;52766;56.008;37.440;2023-04-26T08:05:42;8.90;;;5.07;;
65998;SDS011;52766;56.008;37.440;2023-04-26T08:08:08;6.00;;;3.30;;
65998;SDS011;52766;56.008;37.440;2023-04-26T08:10:34;6.10;;;3.35;;
65998;SDS011;52766;56.008;37.440;2023-04-26T08:13:01;6.30;;;3.80;;
65998;SDS011;52766;56.008;37.440;2023-04-26T08:15:28;7.05;;;3.67;;
65998;SDS011;52766;56.008;37.440;2023-04-26T08:17:56;4.78;;;2.83;;
65998;SDS011;52766;56.008;37.440;2023-04-26T08:20:22;7.68;;;4.22;;
65998;SDS011;52766;56.008;37.440;2023-04-26T08:22:48;4.65;;;3.05;;
65998;SDS011;52766;56.008;37.440;2023-04-26T08:25:14;7.72;;;3.67;;
65998;SDS011;52766;56.008;37.440;2023-04-26T08:27:40;6.40;;;3.58;;
65998;SDS011;52766;56.008;37.440;2023-04-26T08:30:09;5.38;;;3.25;;
65998;SDS011;52766;56.008;37.440;2023-04-26T08:32:35;4.88;;;2.90;;
65998;SDS011;52766;56.008;37.440;2023-04-26T08:35:01;6.93;;;3.58;;
65998;SDS011;52766;56.008;37.440;2023-04-26T08:37:29;5.40;;;3.05;;
65998;SDS011;52766;56.008;37.440;2023-04-26T08:39:55;6.63;;;3.80;;
65998;SDS011;52766;56.008;37.440;2023-04-26T08:42:22;8.18;;;4.82;;
65998;SDS011;52766;56.008;37.440;2023-04-26T08:44:52;11.65;;;4.88;;
65998;SDS011;52766;56.008;37.440;2023-04-26T08:49:55;6.57;;;4.18;;
65998;SDS011;52766;56.008;37.440;2023-04-26T08:52:30;6.28;;;3.50;;
65998;SDS011;52766;56.008;37.440;2023-04-26T08:54:58;5.95;;;3.83;;
65998;SDS011;52766;56.008;37.440;2023-04-26T08:57:25;7.95;;;4.85;;
65998;SDS011;52766;56.008;37.440;2023-04-26T08:59:52;5.78;;;3.22;;
65998;SDS011;52766;56.008;37.440;2023-04-26T09:02:23;7.28;;;3.85;;
65998;SDS011;52766;56.008;37.440;2023-04-26T09:04:49;7.60;;;4.38;;
65998;SDS011;52766;56.008;37.440;2023-04-26T09:07:19;8.02;;;4.65;;
65998;SDS011;52766;56.008;37.440;2023-04-26T09:09:48;5.43;;;2.67;;
65998;SDS011;52766;56.008;37.440;2023-04-26T09:12:18;4.65;;;2.55;;
65998;SDS011;52766;56.008;37.440;2023-04-26T09:14:47;6.88;;;3.00;;
65998;SDS011;52766;56.008;37.440;2023-04-26T09:17:30;4.50;;;2.90;;
65998;SDS011;52766;56.008;37.440;2023-04-26T09:19:58;5.60;;;3.13;;
65998;SDS011;52766;56.008;37.440;2023-04-26T09:22:31;3.90;;;2.55;;
65998;SDS011;52766;56.008;37.440;2023-04-26T09:25:02;4.72;;;2.50;;
65998;SDS011;52766;56.008;37.440;2023-04-26T09:27:33;5.95;;;3.55;;
65998;SDS011;52766;56.008;37.440;2023-04-26T09:30:09;6.90;;;3.25;;
65998;SDS011;52766;56.008;37.440;2023-04-26T09:32:57;5.55;;;3.15;;
65998;SDS011;52766;56.008;37.440;2023-04-26T09:35:34;6.25;;;3.55;;
65998;SDS011;52766;56.008;37.440;2023-04-26T09:38:06;5.68;;;3.03;;
65998;SDS011;52766;56.008;37.440;2023-04-26T09:43:09;5.13;;;2.72;;
65998;SDS011;52766;56.008;37.440;2023-04-26T09:45:48;5.47;;;3.00;;
65998;SDS011;52766;56.008;37.440;2023-04-26T09:48:25;3.90;;;2.33;;
65998;SDS011;52766;56.008;37.440;2023-04-26T09:50:55;4.38;;;2.35;;
65998;SDS011;52766;56.008;37.440;2023-04-26T09:55:51;4.97;;;2.08;;
65998;SDS011;52766;56.008;37.440;2023-04-26T09:58:18;4.22;;;2.22;;
65998;SDS011;52766;56.008;37.440;2023-04-26T10:00:44;4.47;;;2.70;;
65998;SDS011;52766;56.008;37.440;2023-04-26T10:03:12;5.05;;;3.20;;
65998;SDS011;52766;56.008;37.440;2023-04-26T10:05:40;5.13;;;3.03;;
65998;SDS011;52766;56.008;37.440;2023-04-26T10:08:09;3.33;;;2.00;;
65998;SDS011;52766;56.008;37.440;2023-04-26T10:10:36;4.13;;;2.20;;
65998;SDS011;52766;56.008;37.440;2023-04-26T10:13:04;4.70;;;2.58;;
65998;SDS011;52766;56.008;37.440;2023-04-26T10:15:31;5.63;;;1.90;;
65998;SDS011;52766;56.008;37.440;2023-04-26T10:17:59;3.45;;;1.80;;
65998;SDS011;52766;56.008;37.440;2023-04-26T10:20:26;3.42;;;1.65;;
65998;SDS011;52766;56.008;37.440;2023-04-26T10:22:53;3.28;;;1.77;;
65998;SDS011;52766;56.008;37.440;2023-04-26T10:25:38;3.13;;;1.88;;
65998;SDS011;52766;56.008;37.440;2023-04-26T10:28:07;3.65;;;2.10;;
65998;SDS011;52766;56.008;37.440;2023-04-26T10:30:34;6.30;;;3.03;;
65998;SDS011;52766;56.008;37.440;2023-04-26T10:33:19;4.80;;;3.22;;
65998;SDS011;52766;56.008;37.440;2023-04-26T10:38:39;4.97;;;2.47;;
65998;SDS011;52766;56.008;37.440;2023-04-26T10:41:34;3.55;;;2.28;;
65998;SDS011;52766;56.008;37.440;2023-04-26T10:47:06;5.43;;;2.15;;
65998;SDS011;52766;56.008;37.440;2023-04-26T10:49:45;5.80;;;2.70;;
65998;SDS011;52766;56.008;37.440;2023-04-26T10:52:16;6.13;;;2.67;;
65998;SDS011;52766;56.008;37.440;2023-04-26T10:54:56;4.97;;;2.78;;
65998;SDS011;52766;56.008;37.440;2023-04-26T10:57:45;3.83;;;2.00;;
65998;SDS011;52766;56.008;37.440;2023-04-26T11:00:25;3.50;;;1.98;;
65998;SDS011;52766;56.008;37.440;2023-04-26T11:03:05;4.32;;;2.22;;
65998;SDS011;52766;56.008;37.440;2023-04-26T11:05:41;5.22;;;1.88;;
65998;SDS011;52766;56.008;37.440;2023-04-26T11:08:17;2.97;;;1.50;;
65998;SDS011;52766;56.008;37.440;2023-04-26T11:11:04;2.35;;;1.25;;
65998;SDS011;52766;56.008;37.440;2023-04-26T11:13:34;3.25;;;1.88;;
65998;SDS011;52766;56.008;37.440;2023-04-26T11:16:02;3.38;;;1.83;;
65998;SDS011;52766;56.008;37.440;2023-04-26T11:18:33;3.00;;;1.48;;
65998;SDS011;52766;56.008;37.440;2023-04-26T11:21:01;2.38;;;1.50;;
65998;SDS011;52766;56.008;37.440;2023-04-26T11:23:28;1.52;;;1.20;;
65998;SDS011;52766;56.008;37.440;2023-04-26T11:25:58;3.08;;;1.25;;
65998;SDS011;52766;56.008;37.440;2023-04-26T11:28:30;2.70;;;0.98;;
65998;SDS011;52766;56.008;37.440;2023-04-26T11:30:59;2.45;;;1.30;;
65998;SDS011;52766;56.008;37.440;2023-04-26T11:33:26;2.75;;;1.65;;
65998;SDS011;52766;56.008;37.440;2023-04-26T11:35:53;2.28;;;1.40;;
65998;SDS011;52766;56.008;37.440;2023-04-26T11:38:26;2.30;;;1.30;;
65998;SDS011;52766;56.008;37.440;2023-04-26T11:43:20;2.40;;;1.30;;
65998;SDS011;52766;56.008;37.440;2023-04-26T11:45:47;2.42;;;1.20;;
65998;SDS011;52766;56.008;37.440;2023-04-26T11:48:13;2.28;;;1.30;;
65998;SDS011;52766;56.008;37.440;2023-04-26T11:50:40;1.60;;;1.10;;
65998;SDS011;52766;56.008;37.440;2023-04-26T11:53:07;2.28;;;1.27;;
65998;SDS011;52766;56.008;37.440;2023-04-26T11:55:33;1.35;;;1.00;;
65998;SDS011;52766;56.008;37.440;2023-04-26T11:58:00;1.52;;;1.00;;
65998;SDS011;52766;56.008;37.440;2023-04-26T12:00:33;1.85;;;1.17;;
65998;SDS011;52766;56.008;37.440;2023-04-26T12:03:08;3.40;;;1.23;;
65998;SDS011;52766;56.008;37.440;2023-04-26T12:05:35;2.03;;;1.13;;
65998;SDS011;52766;56.008;37.440;2023-04-26T12:08:02;1.55;;;1.10;;
65998;SDS011;52766;56.008;37.440;2023-04-26T12:10:35;1.40;;;0.93;;
65998;SDS011;52766;56.008;37.440;2023-04-26T12:13:03;2.42;;;1.20;;
65998;SDS011;52766;56.008;37.440;2023-04-26T12:15:30;1.95;;;1.25;;
65998;SDS011;52766;56.008;37.440;2023-04-26T12:20:29;2.88;;;1.63;;
65998;SDS011;52766;56.008;37.440;2023-04-26T12:25:23;2.45;;;1.08;;
65998;SDS011;52766;56.008;37.440;2023-04-26T12:27:49;2.13;;;1.17;;
65998;SDS011;52766;56.008;37.440;2023-04-26T12:30:16;1.30;;;0.77;;
65998;SDS011;52766;56.008;37.440;2023-04-26T12:32:42;0.77;;;0.73;;
65998;SDS011;52766;56.008;37.440;2023-04-26T12:35:08;2.13;;;0.82;;
65998;SDS011;52766;56.008;37.440;2023-04-26T12:37:34;1.92;;;0.80;;
65998;SDS011;52766;56.008;37.440;2023-04-26T12:40:00;1.83;;;1.20;;
65998;SDS011;52766;56.008;37.440;2023-04-26T12:42:26;1.75;;;1.00;;
65998;SDS011;52766;56.008;37.440;2023-04-26T12:44:52;1.30;;;0.80;;
65998;SDS011;52766;56.008;37.440;2023-04-26T12:47:18;2.60;;;1.33;;
65998;SDS011;52766;56.008;37.440;2023-04-26T12:49:44;3.35;;;0.90;;
65998;SDS011;52766;56.008;37.440;2023-04-26T12:52:10;0.88;;;0.77;;
65998;SDS011;52766;56.008;37.440;2023-04-26T12:54:36;3.10;;;1.23;;
65998;SDS011;52766;56.008;37.440;2023-04-26T12:57:02;1.92;;;1.20;;
65998;SDS011;52766;56.008;37.440;2023-04-26T12:59:28;2.42;;;1.27;;
65998;SDS011;52766;56.008;37.440;2023-04-26T13:01:54;3.05;;;1.45;;
65998;SDS011;52766;56.008;37.440;2023-04-26T13:04:22;1.20;;;1.05;;
65998;SDS011;52766;56.008;37.440;2023-04-26T13:06:48;1.75;;;0.85;;
65998;SDS011;52766;56.008;37.440;2023-04-26T13:09:14;1.77;;;1.20;;
65998;SDS011;52766;56.008;37.440;2023-04-26T13:11:40;3.15;;;1.40;;
65998;SDS011;52766;56.008;37.440;2023-04-26T13:14:06;2.50;;;1.20;;
65998;SDS011;52766;56.008;37.440;2023-04-26T13:16:32;2.22;;;1.33;;
65998;SDS011;52766;56.008;37.440;2023-04-26T13:18:59;2.13;;;1.20;;
65998;SDS011;52766;56.008;37.440;2023-04-26T13:21:25;2.13;;;1.45;;
65998;SDS011;52766;56.008;37.440;2023-04-26T13:23:51;2.13;;;1.52;;
65998;SDS011;52766;56.008;37.440;2023-04-26T13:26:17;3.15;;;1.60;;
65998;SDS011;52766;56.008;37.440;2023-04-26T13:28:43;2.38;;;1.38;;
65998;SDS011;52766;56.008;37.440;2023-04-26T13:31:09;3.72;;;1.27;;
65998;SDS011;52766;56.008;37.440;2023-04-26T13:33:36;3.30;;;1.90;;
65998;SDS011;52766;56.008;37.440;2023-04-26T13:36:03;3.00;;;1.60;;
65998;SDS011;52766;56.008;37.440;2023-04-26T13:38:29;3.28;;;1.70;;
65998;SDS011;52766;56.008;37.440;2023-04-26T13:40:55;5.75;;;1.85;;
65998;SDS011;52766;56.008;37.440;2023-04-26T13:43:21;3.20;;;1.83;;
65998;SDS011;52766;56.008;37.440;2023-04-26T13:45:48;3.22;;;1.77;;
65998;SDS011;52766;56.008;37.440;2023-04-26T13:48:20;4.47;;;1.73;;
65998;SDS011;52766;56.008;37.440;2023-04-26T13:50:49;5.50;;;2.50;;
65998;SDS011;52766;56.008;37.440;2023-04-26T13:53:27;2.97;;;1.80;;
65998;SDS011;52766;56.008;37.440;2023-04-26T13:56:00;2.58;;;1.70;;
65998;SDS011;52766;56.008;37.440;2023-04-26T13:58:27;3.55;;;2.15;;
65998;SDS011;52766;56.008;37.440;2023-04-26T14:00:53;4.28;;;2.53;;
65998;SDS011;52766;56.008;37.440;2023-04-26T14:03:19;3.10;;;2.08;;
65998;SDS011;52766;56.008;37.440;2023-04-26T14:05:46;4.45;;;1.95;;
65998;SDS011;52766;56.008;37.440;2023-04-26T14:08:16;2.65;;;1.70;;
65998;SDS011;52766;56.008;37.440;2023-04-26T14:10:45;3.67;;;2.30;;
65998;SDS011;52766;56.008;37.440;2023-04-26T14:13:13;3.72;;;2.15;;
65998;SDS011;52766;56.008;37.440;2023-04-26T14:15:40;5.63;;;2.47;;
65998;SDS011;52766;56.008;37.440;2023-04-26T14:18:10;4.63;;;2.42;;
65998;SDS011;52766;56.008;37.440;2023-04-26T14:20:38;4.32;;;2.38;;
65998;SDS011;52766;56.008;37.440;2023-04-26T14:23:05;3.00;;;2.00;;
65998;SDS011;52766;56.008;37.440;2023-04-26T14:25:35;3.17;;;2.03;;
65998;SDS011;52766;56.008;37.440;2023-04-26T14:28:02;2.97;;;2.08;;
65998;SDS011;52766;56.008;37.440;2023-04-26T14:30:34;4.75;;;2.35;;
65998;SDS011;52766;56.008;37.440;2023-04-26T14:36:29;3.00;;;1.80;;
65998;SDS011;52766;56.008;37.440;2023-04-26T14:38:56;3.22;;;1.67;;
65998;SDS011;52766;56.008;37.440;2023-04-26T14:41:23;4.72;;;1.98;;
65998;SDS011;52766;56.008;37.440;2023-04-26T14:43:49;6.45;;;2.50;;
65998;SDS011;52766;56.008;37.440;2023-04-26T14:46:15;3.30;;;1.95;;
65998;SDS011;52766;56.008;37.440;2023-04-26T14:48:41;4.40;;;2.00;;
65998;SDS011;52766;56.008;37.440;2023-04-26T14:51:14;3.85;;;1.88;;
65998;SDS011;52766;56.008;37.440;2023-04-26T14:53:41;3.03;;;2.00;;
65998;SDS011;52766;56.008;37.440;2023-04-26T14:56:07;3.17;;;1.88;;
65998;SDS011;52766;56.008;37.440;2023-04-26T14:58:35;3.47;;;2.20;;
65998;SDS011;52766;56.008;37.440;2023-04-26T15:01:02;3.97;;;2.20;;
65998;SDS011;52766;56.008;37.440;2023-04-26T15:03:31;3.47;;;2.17;;
65998;SDS011;52766;56.008;37.440;2023-04-26T15:06:24;4.35;;;2.00;;